sensor_id;sensor_type;location;lat;lon;timestamp;P1;durP1;ratioP1;P2;durP2;ratioP2
33740;SDS011;20065;48.380;10.892;2023-03-23T00:00:10;10.60;;;6.73;;
33740;SDS011;20065;48.380;10.892;2023-03-23T00:02:57;9.73;;;5.40;;
33740;SDS011;20065;48.380;10.892;2023-03-23T00:05:47;10.43;;;5.80;;
33740;SDS011;20065;48.380;10.892;2023-03-23T00:08:37;9.93;;;5.47;;
33740;SDS011;20065;48.380;10.892;2023-03-23T00:11:34;14.80;;;5.77;;
33740;SDS011;20065;48.380;10.892;2023-03-23T00:14:20;7.90;;;5.07;;
33740;SDS011;20065;48.380;10.892;2023-03-23T00:17:08;13.00;;;5.30;;
33740;SDS011;20065;48.380;10.892;2023-03-23T00:20:00;7.57;;;4.53;;
33740;SDS011;20065;48.380;10.892;2023-03-23T00:22:49;11.40;;;5.03;;
33740;SDS011;20065;48.380;10.892;2023-03-23T00:25:35;9.43;;;5.57;;
33740;SDS011;20065;48.380;10.892;2023-03-23T00:28:21;8.67;;;5.00;;
33740;SDS011;20065;48.380;10.892;2023-03-23T00:31:10;12.83;;;5.53;;
33740;SDS011;20065;48.380;10.892;2023-03-23T00:37:04;9.50;;;6.13;;
33740;SDS011;20065;48.380;10.892;2023-03-23T00:39:51;8.27;;;5.00;;
33740;SDS011;20065;48.380;10.892;2023-03-23T00:42:42;8.77;;;5.37;;
33740;SDS011;20065;48.380;10.892;2023-03-23T00:45:29;8.73;;;5.60;;
33740;SDS011;20065;48.380;10.892;2023-03-23T00:48:15;8.20;;;5.57;;
33740;SDS011;20065;48.380;10.892;2023-03-23T00:51:03;9.23;;;5.13;;
33740;SDS011;20065;48.380;10.892;2023-03-23T00:53:55;12.40;;;5.37;;
33740;SDS011;20065;48.380;10.892;2023-03-23T00:56:41;9.80;;;5.37;;
33740;SDS011;20065;48.380;10.892;2023-03-23T00:59:28;8.47;;;5.63;;
33740;SDS011;20065;48.380;10.892;2023-03-23T01:02:14;12.93;;;5.60;;
33740;SDS011;20065;48.380;10.892;2023-03-23T01:05:00;10.87;;;6.40;;
33740;SDS011;20065;48.380;10.892;2023-03-23T01:07:48;8.87;;;5.47;;
33740;SDS011;20065;48.380;10.892;2023-03-23T01:10:34;10.47;;;5.90;;
33740;SDS011;20065;48.380;10.892;2023-03-23T01:13:24;13.17;;;7.93;;
33740;SDS011;20065;48.380;10.892;2023-03-23T01:16:10;10.67;;;6.43;;
33740;SDS011;20065;48.380;10.892;2023-03-23T01:18:57;10.40;;;6.07;;
33740;SDS011;20065;48.380;10.892;2023-03-23T01:21:43;11.30;;;6.23;;
33740;SDS011;20065;48.380;10.892;2023-03-23T01:24:32;10.00;;;6.60;;
33740;SDS011;20065;48.380;10.892;2023-03-23T01:27:22;9.67;;;6.30;;
33740;SDS011;20065;48.380;10.892;2023-03-23T01:30:10;14.17;;;6.40;;
33740;SDS011;20065;48.380;10.892;2023-03-23T01:32:57;13.77;;;6.70;;
33740;SDS011;20065;48.380;10.892;2023-03-23T01:35:44;8.53;;;6.00;;
33740;SDS011;20065;48.380;10.892;2023-03-23T01:38:30;12.50;;;8.37;;
33740;SDS011;20065;48.380;10.892;2023-03-23T01:41:16;10.23;;;6.60;;
33740;SDS011;20065;48.380;10.892;2023-03-23T01:44:08;11.30;;;7.20;;
33740;SDS011;20065;48.380;10.892;2023-03-23T01:47:26;10.20;;;6.93;;
33740;SDS011;20065;48.380;10.892;2023-03-23T01:50:14;10.90;;;6.13;;
33740;SDS011;20065;48.380;10.892;2023-03-23T01:53:00;9.30;;;6.00;;
33740;SDS011;20065;48.380;10.892;2023-03-23T01:55:49;13.33;;;7.40;;
33740;SDS011;20065;48.380;10.892;2023-03-23T01:58:38;12.07;;;6.87;;
33740;SDS011;20065;48.380;10.892;2023-03-23T02:01:25;10.43;;;6.13;;
33740;SDS011;20065;48.380;10.892;2023-03-23T02:04:13;12.97;;;6.17;;
33740;SDS011;20065;48.380;10.892;2023-03-23T02:07:01;10.93;;;6.80;;
33740;SDS011;20065;48.380;10.892;2023-03-23T02:09:50;9.30;;;5.53;;
33740;SDS011;20065;48.380;10.892;2023-03-23T02:12:37;9.37;;;6.03;;
33740;SDS011;20065;48.380;10.892;2023-03-23T02:15:25;10.90;;;6.00;;
33740;SDS011;20065;48.380;10.892;2023-03-23T02:21:17;9.97;;;6.37;;
33740;SDS011;20065;48.380;10.892;2023-03-23T02:36:28;7.40;;;5.53;;
33740;SDS011;20065;48.380;10.892;2023-03-23T02:39:47;8.30;;;5.57;;
33740;SDS011;20065;48.380;10.892;2023-03-23T02:42:36;8.20;;;5.90;;
33740;SDS011;20065;48.380;10.892;2023-03-23T02:45:27;11.90;;;6.30;;
33740;SDS011;20065;48.380;10.892;2023-03-23T02:48:15;10.70;;;6.13;;
33740;SDS011;20065;48.380;10.892;2023-03-23T02:51:06;9.10;;;5.97;;
33740;SDS011;20065;48.380;10.892;2023-03-23T02:53:54;10.27;;;6.33;;
33740;SDS011;20065;48.380;10.892;2023-03-23T02:56:42;8.20;;;5.43;;
33740;SDS011;20065;48.380;10.892;2023-03-23T02:59:38;10.93;;;6.20;;
33740;SDS011;20065;48.380;10.892;2023-03-23T03:02:26;8.53;;;6.00;;
33740;SDS011;20065;48.380;10.892;2023-03-23T03:05:26;11.23;;;6.00;;
33740;SDS011;20065;48.380;10.892;2023-03-23T03:11:09;8.73;;;6.07;;
33740;SDS011;20065;48.380;10.892;2023-03-23T03:14:05;8.77;;;5.40;;
33740;SDS011;20065;48.380;10.892;2023-03-23T03:17:00;10.83;;;6.20;;
33740;SDS011;20065;48.380;10.892;2023-03-23T03:20:07;8.60;;;6.03;;
33740;SDS011;20065;48.380;10.892;2023-03-23T03:22:59;8.03;;;5.53;;
33740;SDS011;20065;48.380;10.892;2023-03-23T03:25:48;8.87;;;5.57;;
33740;SDS011;20065;48.380;10.892;2023-03-23T03:28:44;10.47;;;5.93;;
33740;SDS011;20065;48.380;10.892;2023-03-23T03:31:35;10.60;;;5.80;;
33740;SDS011;20065;48.380;10.892;2023-03-23T03:34:25;8.63;;;5.13;;
33740;SDS011;20065;48.380;10.892;2023-03-23T03:37:11;7.50;;;5.40;;
33740;SDS011;20065;48.380;10.892;2023-03-23T03:39:58;8.43;;;5.73;;
33740;SDS011;20065;48.380;10.892;2023-03-23T03:42:45;8.50;;;5.50;;
33740;SDS011;20065;48.380;10.892;2023-03-23T03:45:33;7.57;;;5.00;;
33740;SDS011;20065;48.380;10.892;2023-03-23T03:48:19;7.73;;;5.30;;
33740;SDS011;20065;48.380;10.892;2023-03-23T03:51:06;8.37;;;5.10;;
33740;SDS011;20065;48.380;10.892;2023-03-23T03:53:56;8.80;;;5.40;;
33740;SDS011;20065;48.380;10.892;2023-03-23T03:56:43;9.63;;;6.00;;
33740;SDS011;20065;48.380;10.892;2023-03-23T04:00:00;9.80;;;5.87;;
33740;SDS011;20065;48.380;10.892;2023-03-23T04:03:00;11.20;;;6.35;;
33740;SDS011;20065;48.380;10.892;2023-03-23T04:06:02;9.57;;;6.03;;
33740;SDS011;20065;48.380;10.892;2023-03-23T04:08:49;7.90;;;5.80;;
33740;SDS011;20065;48.380;10.892;2023-03-23T04:11:35;9.03;;;6.20;;
33740;SDS011;20065;48.380;10.892;2023-03-23T04:14:57;10.13;;;6.57;;
33740;SDS011;20065;48.380;10.892;2023-03-23T04:17:51;9.43;;;5.70;;
33740;SDS011;20065;48.380;10.892;2023-03-23T04:20:37;7.73;;;5.03;;
33740;SDS011;20065;48.380;10.892;2023-03-23T04:23:24;8.07;;;4.33;;
33740;SDS011;20065;48.380;10.892;2023-03-23T04:26:12;10.70;;;4.57;;
33740;SDS011;20065;48.380;10.892;2023-03-23T04:29:06;6.93;;;3.80;;
33740;SDS011;20065;48.380;10.892;2023-03-23T04:31:55;6.87;;;4.07;;
33740;SDS011;20065;48.380;10.892;2023-03-23T04:34:51;6.23;;;3.30;;
33740;SDS011;20065;48.380;10.892;2023-03-23T04:37:41;6.40;;;3.77;;
33740;SDS011;20065;48.380;10.892;2023-03-23T04:40:29;6.00;;;3.20;;
33740;SDS011;20065;48.380;10.892;2023-03-23T04:43:23;4.70;;;2.37;;
33740;SDS011;20065;48.380;10.892;2023-03-23T04:46:20;4.87;;;3.03;;
33740;SDS011;20065;48.380;10.892;2023-03-23T04:49:08;6.70;;;3.00;;
33740;SDS011;20065;48.380;10.892;2023-03-23T04:51:57;5.10;;;3.17;;
33740;SDS011;20065;48.380;10.892;2023-03-23T04:54:59;6.43;;;3.20;;
33740;SDS011;20065;48.380;10.892;2023-03-23T04:57:47;7.50;;;4.40;;
33740;SDS011;20065;48.380;10.892;2023-03-23T05:00:51;7.60;;;4.30;;
33740;SDS011;20065;48.380;10.892;2023-03-23T05:03:43;6.97;;;3.97;;
33740;SDS011;20065;48.380;10.892;2023-03-23T05:06:30;7.40;;;3.80;;
33740;SDS011;20065;48.380;10.892;2023-03-23T05:09:21;7.50;;;4.70;;
33740;SDS011;20065;48.380;10.892;2023-03-23T05:12:09;6.87;;;4.40;;
33740;SDS011;20065;48.380;10.892;2023-03-23T05:15:07;8.87;;;4.77;;
33740;SDS011;20065;48.380;10.892;2023-03-23T05:17:55;9.90;;;4.27;;
33740;SDS011;20065;48.380;10.892;2023-03-23T05:20:41;7.90;;;4.87;;
33740;SDS011;20065;48.380;10.892;2023-03-23T05:23:34;9.27;;;5.40;;
33740;SDS011;20065;48.380;10.892;2023-03-23T05:26:30;10.50;;;5.23;;
33740;SDS011;20065;48.380;10.892;2023-03-23T05:29:24;7.00;;;4.40;;
33740;SDS011;20065;48.380;10.892;2023-03-23T05:32:16;6.73;;;4.90;;
33740;SDS011;20065;48.380;10.892;2023-03-23T05:35:04;8.73;;;5.57;;
33740;SDS011;20065;48.380;10.892;2023-03-23T05:37:52;7.97;;;5.00;;
33740;SDS011;20065;48.380;10.892;2023-03-23T05:40:39;7.00;;;4.93;;
33740;SDS011;20065;48.380;10.892;2023-03-23T05:43:36;8.20;;;5.07;;
33740;SDS011;20065;48.380;10.892;2023-03-23T05:46:36;8.37;;;5.40;;
33740;SDS011;20065;48.380;10.892;2023-03-23T05:49:22;11.90;;;5.23;;
33740;SDS011;20065;48.380;10.892;2023-03-23T05:52:09;8.17;;;5.60;;
33740;SDS011;20065;48.380;10.892;2023-03-23T05:54:56;14.47;;;6.60;;
33740;SDS011;20065;48.380;10.892;2023-03-23T05:57:43;9.53;;;5.40;;
33740;SDS011;20065;48.380;10.892;2023-03-23T06:00:51;10.27;;;6.20;;
33740;SDS011;20065;48.380;10.892;2023-03-23T06:03:46;10.40;;;5.63;;
33740;SDS011;20065;48.380;10.892;2023-03-23T06:06:42;8.87;;;5.90;;
33740;SDS011;20065;48.380;10.892;2023-03-23T06:09:30;12.07;;;4.80;;
33740;SDS011;20065;48.380;10.892;2023-03-23T06:12:45;8.17;;;4.97;;
33740;SDS011;20065;48.380;10.892;2023-03-23T06:15:39;11.40;;;4.47;;
33740;SDS011;20065;48.380;10.892;2023-03-23T06:18:39;7.40;;;4.77;;
33740;SDS011;20065;48.380;10.892;2023-03-23T06:21:36;9.90;;;5.30;;
33740;SDS011;20065;48.380;10.892;2023-03-23T06:24:45;6.67;;;4.70;;
33740;SDS011;20065;48.380;10.892;2023-03-23T06:27:35;6.97;;;4.47;;
33740;SDS011;20065;48.380;10.892;2023-03-23T06:30:23;7.23;;;4.57;;
33740;SDS011;20065;48.380;10.892;2023-03-23T06:33:09;7.97;;;4.43;;
33740;SDS011;20065;48.380;10.892;2023-03-23T06:36:16;6.30;;;4.60;;
33740;SDS011;20065;48.380;10.892;2023-03-23T06:39:21;7.80;;;4.67;;
33740;SDS011;20065;48.380;10.892;2023-03-23T06:42:28;7.37;;;4.73;;
33740;SDS011;20065;48.380;10.892;2023-03-23T06:45:34;8.77;;;4.77;;
33740;SDS011;20065;48.380;10.892;2023-03-23T06:48:40;9.33;;;5.00;;
33740;SDS011;20065;48.380;10.892;2023-03-23T06:51:28;6.60;;;4.00;;
33740;SDS011;20065;48.380;10.892;2023-03-23T06:54:15;7.30;;;4.83;;
33740;SDS011;20065;48.380;10.892;2023-03-23T06:57:03;8.00;;;4.10;;
33740;SDS011;20065;48.380;10.892;2023-03-23T06:59:50;7.63;;;4.47;;
33740;SDS011;20065;48.380;10.892;2023-03-23T07:02:37;9.70;;;4.10;;
33740;SDS011;20065;48.380;10.892;2023-03-23T07:05:23;10.90;;;4.80;;
33740;SDS011;20065;48.380;10.892;2023-03-23T07:08:11;7.83;;;4.50;;
33740;SDS011;20065;48.380;10.892;2023-03-23T07:11:09;6.70;;;4.40;;
33740;SDS011;20065;48.380;10.892;2023-03-23T07:13:56;9.30;;;4.40;;
33740;SDS011;20065;48.380;10.892;2023-03-23T07:16:43;8.80;;;4.40;;
33740;SDS011;20065;48.380;10.892;2023-03-23T07:19:29;7.03;;;4.23;;
33740;SDS011;20065;48.380;10.892;2023-03-23T07:22:16;8.10;;;4.70;;
33740;SDS011;20065;48.380;10.892;2023-03-23T07:25:08;8.60;;;4.80;;
33740;SDS011;20065;48.380;10.892;2023-03-23T07:28:07;9.50;;;5.50;;
33740;SDS011;20065;48.380;10.892;2023-03-23T07:30:54;10.10;;;5.10;;
33740;SDS011;20065;48.380;10.892;2023-03-23T07:33:41;7.13;;;4.80;;
33740;SDS011;20065;48.380;10.892;2023-03-23T07:36:27;12.17;;;4.70;;
33740;SDS011;20065;48.380;10.892;2023-03-23T07:39:14;7.50;;;4.60;;
33740;SDS011;20065;48.380;10.892;2023-03-23T07:42:01;7.10;;;4.30;;
33740;SDS011;20065;48.380;10.892;2023-03-23T07:44:59;7.10;;;5.00;;
33740;SDS011;20065;48.380;10.892;2023-03-23T07:47:45;7.10;;;4.43;;
33740;SDS011;20065;48.380;10.892;2023-03-23T07:50:31;7.33;;;4.80;;
33740;SDS011;20065;48.380;10.892;2023-03-23T07:53:19;6.30;;;4.33;;
33740;SDS011;20065;48.380;10.892;2023-03-23T07:56:15;9.20;;;4.80;;
33740;SDS011;20065;48.380;10.892;2023-03-23T07:59:24;7.37;;;4.70;;
33740;SDS011;20065;48.380;10.892;2023-03-23T08:02:11;7.50;;;4.50;;
33740;SDS011;20065;48.380;10.892;2023-03-23T08:05:17;10.10;;;4.30;;
33740;SDS011;20065;48.380;10.892;2023-03-23T08:08:25;12.10;;;4.43;;
33740;SDS011;20065;48.380;10.892;2023-03-23T08:11:29;10.50;;;4.17;;
33740;SDS011;20065;48.380;10.892;2023-03-23T08:14:34;5.63;;;3.73;;
33740;SDS011;20065;48.380;10.892;2023-03-23T08:17:40;9.93;;;4.33;;
33740;SDS011;20065;48.380;10.892;2023-03-23T08:20:47;6.50;;;4.07;;
33740;SDS011;20065;48.380;10.892;2023-03-23T08:23:56;10.67;;;3.77;;
33740;SDS011;20065;48.380;10.892;2023-03-23T08:27:05;7.47;;;2.93;;
33740;SDS011;20065;48.380;10.892;2023-03-23T08:30:16;9.73;;;3.70;;
33740;SDS011;20065;48.380;10.892;2023-03-23T08:33:26;5.40;;;3.37;;
33740;SDS011;20065;48.380;10.892;2023-03-23T08:36:28;4.70;;;2.73;;
33740;SDS011;20065;48.380;10.892;2023-03-23T08:39:44;6.67;;;2.73;;
33740;SDS011;20065;48.380;10.892;2023-03-23T08:42:51;6.90;;;2.70;;
33740;SDS011;20065;48.380;10.892;2023-03-23T08:45:56;7.50;;;2.60;;
33740;SDS011;20065;48.380;10.892;2023-03-23T08:49:02;7.60;;;2.87;;
33740;SDS011;20065;48.380;10.892;2023-03-23T08:52:07;5.33;;;2.67;;
33740;SDS011;20065;48.380;10.892;2023-03-23T08:55:12;4.10;;;2.10;;
33740;SDS011;20065;48.380;10.892;2023-03-23T08:58:23;5.20;;;2.20;;
33740;SDS011;20065;48.380;10.892;2023-03-23T09:01:18;6.50;;;1.70;;
33740;SDS011;20065;48.380;10.892;2023-03-23T09:04:29;4.30;;;1.80;;
33740;SDS011;20065;48.380;10.892;2023-03-23T09:07:37;4.57;;;1.90;;
33740;SDS011;20065;48.380;10.892;2023-03-23T09:10:25;6.37;;;1.67;;
33740;SDS011;20065;48.380;10.892;2023-03-23T09:13:12;3.57;;;1.80;;
33740;SDS011;20065;48.380;10.892;2023-03-23T09:15:59;4.40;;;2.00;;
33740;SDS011;20065;48.380;10.892;2023-03-23T09:18:45;4.10;;;2.00;;
33740;SDS011;20065;48.380;10.892;2023-03-23T09:21:31;5.03;;;1.80;;
33740;SDS011;20065;48.380;10.892;2023-03-23T09:24:17;3.37;;;1.40;;
33740;SDS011;20065;48.380;10.892;2023-03-23T09:27:04;4.60;;;1.77;;
33740;SDS011;20065;48.380;10.892;2023-03-23T09:29:50;4.03;;;1.77;;
33740;SDS011;20065;48.380;10.892;2023-03-23T09:32:37;6.00;;;2.00;;
33740;SDS011;20065;48.380;10.892;2023-03-23T09:35:23;3.77;;;1.80;;
33740;SDS011;20065;48.380;10.892;2023-03-23T09:38:10;7.83;;;2.27;;
33740;SDS011;20065;48.380;10.892;2023-03-23T09:50:21;4.50;;;2.13;;
33740;SDS011;20065;48.380;10.892;2023-03-23T09:53:22;7.93;;;1.90;;
33740;SDS011;20065;48.380;10.892;2023-03-23T09:56:13;3.70;;;1.70;;
33740;SDS011;20065;48.380;10.892;2023-03-23T09:59:16;5.10;;;2.00;;
33740;SDS011;20065;48.380;10.892;2023-03-23T10:02:38;6.40;;;1.93;;
33740;SDS011;20065;48.380;10.892;2023-03-23T10:05:30;5.90;;;1.90;;
33740;SDS011;20065;48.380;10.892;2023-03-23T10:08:21;5.27;;;2.30;;
33740;SDS011;20065;48.380;10.892;2023-03-23T10:17:14;6.77;;;2.70;;
33740;SDS011;20065;48.380;10.892;2023-03-23T10:26:06;5.43;;;2.70;;
33740;SDS011;20065;48.380;10.892;2023-03-23T10:32:36;4.70;;;2.60;;
33740;SDS011;20065;48.380;10.892;2023-03-23T10:35:38;5.13;;;1.80;;
33740;SDS011;20065;48.380;10.892;2023-03-23T10:41:29;4.80;;;2.40;;
33740;SDS011;20065;48.380;10.892;2023-03-23T10:44:18;5.00;;;2.30;;
33740;SDS011;20065;48.380;10.892;2023-03-23T10:47:07;5.60;;;2.40;;
33740;SDS011;20065;48.380;10.892;2023-03-23T10:50:01;3.93;;;2.30;;
33740;SDS011;20065;48.380;10.892;2023-03-23T10:52:51;4.57;;;2.00;;
33740;SDS011;20065;48.380;10.892;2023-03-23T10:55:42;3.20;;;1.70;;
33740;SDS011;20065;48.380;10.892;2023-03-23T10:58:31;5.30;;;2.20;;
33740;SDS011;20065;48.380;10.892;2023-03-23T11:01:20;3.77;;;2.00;;
33740;SDS011;20065;48.380;10.892;2023-03-23T11:04:15;7.63;;;2.63;;
33740;SDS011;20065;48.380;10.892;2023-03-23T11:07:02;4.53;;;2.07;;
33740;SDS011;20065;48.380;10.892;2023-03-23T11:09:53;3.80;;;1.87;;
33740;SDS011;20065;48.380;10.892;2023-03-23T11:12:43;4.40;;;1.80;;
33740;SDS011;20065;48.380;10.892;2023-03-23T11:15:42;3.43;;;1.60;;
33740;SDS011;20065;48.380;10.892;2023-03-23T11:18:42;8.87;;;2.13;;
33740;SDS011;20065;48.380;10.892;2023-03-23T11:21:28;4.23;;;1.93;;
33740;SDS011;20065;48.380;10.892;2023-03-23T11:24:17;3.70;;;1.70;;
33740;SDS011;20065;48.380;10.892;2023-03-23T11:27:04;4.60;;;1.60;;
33740;SDS011;20065;48.380;10.892;2023-03-23T11:29:56;4.67;;;1.87;;
33740;SDS011;20065;48.380;10.892;2023-03-23T11:32:58;5.07;;;1.60;;
33740;SDS011;20065;48.380;10.892;2023-03-23T11:35:47;3.13;;;1.73;;
33740;SDS011;20065;48.380;10.892;2023-03-23T11:38:33;3.10;;;1.50;;
33740;SDS011;20065;48.380;10.892;2023-03-23T11:41:21;4.27;;;1.83;;
33740;SDS011;20065;48.380;10.892;2023-03-23T11:44:09;4.43;;;1.80;;
33740;SDS011;20065;48.380;10.892;2023-03-23T11:50:17;3.93;;;1.90;;
33740;SDS011;20065;48.380;10.892;2023-03-23T11:56:38;5.67;;;1.90;;
33740;SDS011;20065;48.380;10.892;2023-03-23T11:59:28;4.40;;;1.63;;
33740;SDS011;20065;48.380;10.892;2023-03-23T12:06:09;3.97;;;1.80;;
33740;SDS011;20065;48.380;10.892;2023-03-23T12:23:49;3.50;;;1.40;;
33740;SDS011;20065;48.380;10.892;2023-03-23T12:30:31;3.17;;;1.77;;
33740;SDS011;20065;48.380;10.892;2023-03-23T12:45:49;2.90;;;1.47;;
33740;SDS011;20065;48.380;10.892;2023-03-23T12:48:47;4.57;;;2.03;;
33740;SDS011;20065;48.380;10.892;2023-03-23T12:54:39;3.73;;;1.70;;
33740;SDS011;20065;48.380;10.892;2023-03-23T12:57:34;4.70;;;1.80;;
33740;SDS011;20065;48.380;10.892;2023-03-23T13:12:14;4.40;;;2.17;;
33740;SDS011;20065;48.380;10.892;2023-03-23T13:15:50;3.77;;;1.90;;
33740;SDS011;20065;48.380;10.892;2023-03-23T13:21:51;3.10;;;1.83;;
33740;SDS011;20065;48.380;10.892;2023-03-23T13:24:55;6.17;;;1.60;;
33740;SDS011;20065;48.380;10.892;2023-03-23T13:31:03;3.70;;;2.00;;
33740;SDS011;20065;48.380;10.892;2023-03-23T13:33:57;9.30;;;2.80;;
33740;SDS011;20065;48.380;10.892;2023-03-23T13:36:52;7.63;;;1.77;;
33740;SDS011;20065;48.380;10.892;2023-03-23T13:39:54;3.73;;;1.73;;
33740;SDS011;20065;48.380;10.892;2023-03-23T13:45:45;3.33;;;1.80;;
33740;SDS011;20065;48.380;10.892;2023-03-23T13:48:40;8.40;;;2.20;;
33740;SDS011;20065;48.380;10.892;2023-03-23T13:54:40;8.20;;;2.00;;
33740;SDS011;20065;48.380;10.892;2023-03-23T14:03:26;3.90;;;2.17;;
33740;SDS011;20065;48.380;10.892;2023-03-23T14:06:23;5.40;;;1.60;;
33740;SDS011;20065;48.380;10.892;2023-03-23T14:09:40;5.80;;;1.70;;
33740;SDS011;20065;48.380;10.892;2023-03-23T14:12:30;3.73;;;1.50;;
33740;SDS011;20065;48.380;10.892;2023-03-23T14:15:16;5.37;;;1.67;;
33740;SDS011;20065;48.380;10.892;2023-03-23T14:18:03;5.20;;;2.17;;
33740;SDS011;20065;48.380;10.892;2023-03-23T14:20:50;3.77;;;1.90;;
33740;SDS011;20065;48.380;10.892;2023-03-23T14:23:37;5.00;;;2.00;;
33740;SDS011;20065;48.380;10.892;2023-03-23T14:26:23;3.20;;;1.70;;
33740;SDS011;20065;48.380;10.892;2023-03-23T14:29:10;5.40;;;2.53;;
33740;SDS011;20065;48.380;10.892;2023-03-23T14:31:58;5.33;;;2.07;;
33740;SDS011;20065;48.380;10.892;2023-03-23T14:34:48;3.63;;;1.70;;
33740;SDS011;20065;48.380;10.892;2023-03-23T14:37:36;3.40;;;1.67;;
33740;SDS011;20065;48.380;10.892;2023-03-23T14:40:22;4.10;;;2.07;;
33740;SDS011;20065;48.380;10.892;2023-03-23T14:43:14;4.73;;;1.80;;
33740;SDS011;20065;48.380;10.892;2023-03-23T14:46:28;3.83;;;1.90;;
33740;SDS011;20065;48.380;10.892;2023-03-23T14:49:19;4.10;;;1.90;;
33740;SDS011;20065;48.380;10.892;2023-03-23T14:52:16;4.10;;;2.37;;
33740;SDS011;20065;48.380;10.892;2023-03-23T14:55:13;3.70;;;1.80;;
33740;SDS011;20065;48.380;10.892;2023-03-23T14:58:07;4.73;;;2.17;;
33740;SDS011;20065;48.380;10.892;2023-03-23T15:00:59;5.00;;;1.83;;
33740;SDS011;20065;48.380;10.892;2023-03-23T15:06:56;5.20;;;2.23;;
33740;SDS011;20065;48.380;10.892;2023-03-23T15:09:46;5.47;;;2.00;;
33740;SDS011;20065;48.380;10.892;2023-03-23T15:12:33;7.10;;;2.40;;
33740;SDS011;20065;48.380;10.892;2023-03-23T15:15:34;3.40;;;1.97;;
33740;SDS011;20065;48.380;10.892;2023-03-23T15:18:32;4.70;;;2.27;;
33740;SDS011;20065;48.380;10.892;2023-03-23T15:21:22;4.20;;;2.40;;
33740;SDS011;20065;48.380;10.892;2023-03-23T15:27:16;4.87;;;2.00;;
33740;SDS011;20065;48.380;10.892;2023-03-23T15:33:09;6.83;;;2.40;;
33740;SDS011;20065;48.380;10.892;2023-03-23T15:35:57;5.80;;;2.10;;
33740;SDS011;20065;48.380;10.892;2023-03-23T15:38:44;4.50;;;2.20;;
33740;SDS011;20065;48.380;10.892;2023-03-23T15:41:32;6.40;;;2.60;;
33740;SDS011;20065;48.380;10.892;2023-03-23T15:44:31;6.30;;;2.93;;
33740;SDS011;20065;48.380;10.892;2023-03-23T15:47:19;6.03;;;2.97;;
33740;SDS011;20065;48.380;10.892;2023-03-23T15:50:17;5.17;;;2.83;;
33740;SDS011;20065;48.380;10.892;2023-03-23T15:53:19;4.77;;;2.07;;
33740;SDS011;20065;48.380;10.892;2023-03-23T15:56:06;4.30;;;1.80;;
33740;SDS011;20065;48.380;10.892;2023-03-23T15:58:54;4.30;;;2.47;;
33740;SDS011;20065;48.380;10.892;2023-03-23T16:01:44;5.00;;;2.43;;
33740;SDS011;20065;48.380;10.892;2023-03-23T16:04:30;4.20;;;2.33;;
33740;SDS011;20065;48.380;10.892;2023-03-23T16:07:22;5.07;;;2.50;;
33740;SDS011;20065;48.380;10.892;2023-03-23T16:10:16;6.83;;;2.47;;
33740;SDS011;20065;48.380;10.892;2023-03-23T16:13:04;4.57;;;2.83;;
33740;SDS011;20065;48.380;10.892;2023-03-23T16:15:51;6.50;;;2.67;;
33740;SDS011;20065;48.380;10.892;2023-03-23T16:18:38;6.47;;;3.57;;
33740;SDS011;20065;48.380;10.892;2023-03-23T16:21:24;6.70;;;3.70;;
33740;SDS011;20065;48.380;10.892;2023-03-23T16:24:10;7.30;;;2.80;;
33740;SDS011;20065;48.380;10.892;2023-03-23T16:26:57;5.17;;;2.90;;
33740;SDS011;20065;48.380;10.892;2023-03-23T16:29:43;5.93;;;2.87;;
33740;SDS011;20065;48.380;10.892;2023-03-23T16:32:30;3.90;;;2.20;;
33740;SDS011;20065;48.380;10.892;2023-03-23T16:35:20;6.10;;;3.60;;
33740;SDS011;20065;48.380;10.892;2023-03-23T16:38:10;4.80;;;2.20;;
33740;SDS011;20065;48.380;10.892;2023-03-23T16:41:01;7.30;;;3.20;;
33740;SDS011;20065;48.380;10.892;2023-03-23T16:43:48;5.50;;;2.80;;
33740;SDS011;20065;48.380;10.892;2023-03-23T16:46:34;4.37;;;2.20;;
33740;SDS011;20065;48.380;10.892;2023-03-23T16:49:20;3.80;;;2.27;;
33740;SDS011;20065;48.380;10.892;2023-03-23T16:52:07;5.80;;;2.73;;
33740;SDS011;20065;48.380;10.892;2023-03-23T16:54:53;5.80;;;2.80;;
33740;SDS011;20065;48.380;10.892;2023-03-23T16:57:39;4.47;;;2.07;;
33740;SDS011;20065;48.380;10.892;2023-03-23T17:00:26;4.00;;;1.90;;
33740;SDS011;20065;48.380;10.892;2023-03-23T17:03:12;4.93;;;2.40;;
33740;SDS011;20065;48.380;10.892;2023-03-23T17:06:00;4.10;;;2.10;;
33740;SDS011;20065;48.380;10.892;2023-03-23T17:08:46;4.80;;;2.70;;
33740;SDS011;20065;48.380;10.892;2023-03-23T17:11:33;5.43;;;2.60;;
33740;SDS011;20065;48.380;10.892;2023-03-23T17:14:19;6.07;;;2.87;;
33740;SDS011;20065;48.380;10.892;2023-03-23T17:17:06;6.70;;;3.03;;
33740;SDS011;20065;48.380;10.892;2023-03-23T17:19:53;7.10;;;2.80;;
33740;SDS011;20065;48.380;10.892;2023-03-23T17:22:39;5.33;;;2.83;;
33740;SDS011;20065;48.380;10.892;2023-03-23T17:25:25;5.57;;;2.87;;
33740;SDS011;20065;48.380;10.892;2023-03-23T17:28:15;4.43;;;2.70;;
33740;SDS011;20065;48.380;10.892;2023-03-23T17:31:01;5.63;;;3.20;;
33740;SDS011;20065;48.380;10.892;2023-03-23T17:33:51;6.63;;;3.33;;
33740;SDS011;20065;48.380;10.892;2023-03-23T17:36:37;5.80;;;3.27;;
33740;SDS011;20065;48.380;10.892;2023-03-23T17:39:23;6.00;;;3.10;;
33740;SDS011;20065;48.380;10.892;2023-03-23T17:42:09;7.93;;;3.60;;
33740;SDS011;20065;48.380;10.892;2023-03-23T17:44:56;6.90;;;3.10;;
33740;SDS011;20065;48.380;10.892;2023-03-23T17:47:42;6.23;;;3.20;;
33740;SDS011;20065;48.380;10.892;2023-03-23T17:50:28;6.73;;;3.40;;
33740;SDS011;20065;48.380;10.892;2023-03-23T17:53:16;6.50;;;3.03;;
33740;SDS011;20065;48.380;10.892;2023-03-23T17:56:04;7.07;;;3.43;;
33740;SDS011;20065;48.380;10.892;2023-03-23T17:58:51;7.20;;;3.30;;
33740;SDS011;20065;48.380;10.892;2023-03-23T18:01:38;6.00;;;3.20;;
33740;SDS011;20065;48.380;10.892;2023-03-23T18:04:25;7.20;;;3.80;;
33740;SDS011;20065;48.380;10.892;2023-03-23T18:07:14;7.13;;;3.10;;
33740;SDS011;20065;48.380;10.892;2023-03-23T18:10:00;5.70;;;3.97;;
33740;SDS011;20065;48.380;10.892;2023-03-23T18:12:50;6.17;;;3.40;;
33740;SDS011;20065;48.380;10.892;2023-03-23T18:15:36;5.73;;;3.30;;
33740;SDS011;20065;48.380;10.892;2023-03-23T18:18:24;4.90;;;3.17;;
33740;SDS011;20065;48.380;10.892;2023-03-23T18:21:10;6.70;;;3.50;;
33740;SDS011;20065;48.380;10.892;2023-03-23T18:23:57;7.50;;;3.03;;
33740;SDS011;20065;48.380;10.892;2023-03-23T18:26:43;5.27;;;3.00;;
33740;SDS011;20065;48.380;10.892;2023-03-23T18:29:29;7.03;;;3.07;;
33740;SDS011;20065;48.380;10.892;2023-03-23T18:32:15;8.90;;;3.40;;
33740;SDS011;20065;48.380;10.892;2023-03-23T18:35:04;5.80;;;3.07;;
33740;SDS011;20065;48.380;10.892;2023-03-23T18:37:52;5.80;;;3.27;;
33740;SDS011;20065;48.380;10.892;2023-03-23T18:40:42;7.60;;;3.77;;
33740;SDS011;20065;48.380;10.892;2023-03-23T18:43:30;5.33;;;2.93;;
33740;SDS011;20065;48.380;10.892;2023-03-23T18:46:17;7.30;;;3.00;;
33740;SDS011;20065;48.380;10.892;2023-03-23T18:49:04;8.60;;;5.10;;
33740;SDS011;20065;48.380;10.892;2023-03-23T18:51:50;10.10;;;4.20;;
33740;SDS011;20065;48.380;10.892;2023-03-23T18:54:37;9.40;;;4.97;;
33740;SDS011;20065;48.380;10.892;2023-03-23T18:57:25;12.47;;;5.10;;
33740;SDS011;20065;48.380;10.892;2023-03-23T19:00:11;6.43;;;4.20;;
33740;SDS011;20065;48.380;10.892;2023-03-23T19:02:58;7.37;;;4.03;;
33740;SDS011;20065;48.380;10.892;2023-03-23T19:05:45;9.63;;;2.90;;
33740;SDS011;20065;48.380;10.892;2023-03-23T19:08:32;7.60;;;3.60;;
33740;SDS011;20065;48.380;10.892;2023-03-23T19:11:22;7.07;;;3.57;;